createdAt,value
2018-03-16T00:01:24.868Z,35.60
2018-03-16T00:03:52.483Z,34.70
2018-03-16T00:06:20.855Z,35.00
2018-03-16T00:08:48.476Z,35.60
2018-03-16T00:11:16.073Z,37.30
2018-03-16T00:13:43.660Z,35.30
2018-03-16T00:16:11.250Z,36.10
2018-03-16T00:18:39.610Z,34.70
2018-03-16T00:21:08.068Z,34.70
2018-03-16T00:23:35.649Z,32.53
2018-03-16T00:26:03.278Z,32.50
2018-03-16T00:28:31.643Z,36.90
2018-03-16T00:30:59.963Z,33.07
2018-03-16T00:33:28.242Z,33.70
2018-03-16T00:35:56.590Z,31.40
2018-03-16T00:38:24.203Z,32.77
2018-03-16T00:40:51.818Z,30.70
2018-03-16T00:43:20.282Z,32.57
2018-03-16T00:45:48.567Z,30.57
2018-03-16T00:48:16.969Z,30.27
2018-03-16T00:50:44.554Z,30.80
2018-03-16T00:53:12.965Z,29.70
2018-03-16T00:55:41.239Z,29.43
2018-03-16T00:58:08.822Z,29.90
2018-03-16T01:00:36.403Z,27.80
2018-03-16T01:03:04.020Z,31.40
2018-03-16T01:05:32.516Z,30.70
2018-03-16T01:08:00.863Z,31.30
2018-03-16T01:10:28.854Z,31.63
2018-03-16T01:12:57.274Z,30.23
2018-03-16T01:15:24.857Z,29.27
2018-03-16T01:17:53.283Z,35.73
2018-03-16T01:20:20.862Z,34.57
2018-03-16T01:22:49.343Z,32.53
2018-03-16T01:25:16.924Z,31.67
2018-03-16T01:27:44.510Z,34.40
2018-03-16T01:30:12.795Z,32.50
2018-03-16T01:32:40.375Z,33.00
2018-03-16T01:35:07.976Z,30.63
2018-03-16T01:37:35.551Z,30.27
2018-03-16T01:40:03.172Z,31.00
2018-03-16T01:42:30.751Z,27.37
2018-03-16T01:44:58.333Z,31.47
2018-03-16T01:47:25.919Z,28.70
2018-03-16T01:49:53.498Z,31.77
2018-03-16T01:52:21.082Z,30.97
2018-03-16T01:54:48.668Z,29.20
2018-03-16T01:57:16.283Z,30.87
2018-03-16T01:59:43.868Z,28.57
2018-03-16T02:02:11.453Z,29.33
2018-03-16T02:04:39.039Z,27.73
2018-03-16T02:07:06.619Z,29.60
2018-03-16T02:09:34.206Z,27.60
2018-03-16T02:12:01.791Z,32.07
2018-03-16T02:14:29.396Z,29.47
2018-03-16T02:16:56.974Z,28.23
2018-03-16T02:19:24.593Z,29.40
2018-03-16T02:21:52.175Z,28.07
2018-03-16T02:24:19.790Z,27.17
2018-03-16T02:26:47.424Z,29.00
2018-03-16T02:29:15.002Z,25.50
2018-03-16T02:31:43.362Z,25.07
2018-03-16T02:34:10.950Z,27.63
2018-03-16T02:36:38.571Z,26.33
2018-03-16T02:39:06.176Z,27.33
2018-03-16T02:41:34.529Z,25.47
2018-03-16T02:44:02.113Z,23.80
2018-03-16T02:46:30.577Z,24.63
2018-03-16T02:48:58.157Z,24.63
2018-03-16T02:51:25.736Z,19.50
2018-03-16T02:53:54.099Z,21.50
2018-03-16T02:56:21.729Z,21.63
2018-03-16T02:58:49.304Z,21.57
2018-03-16T03:01:16.890Z,23.13
2018-03-16T03:03:44.491Z,22.50
2018-03-16T03:06:12.076Z,21.40
2018-03-16T03:08:39.666Z,17.83
2018-03-16T03:11:07.249Z,21.40
2018-03-16T03:13:35.738Z,22.07
2018-03-16T03:16:03.324Z,21.87
2018-03-16T03:18:30.919Z,19.93
2018-03-16T03:20:58.498Z,20.13
2018-03-16T03:23:26.083Z,19.93
2018-03-16T03:25:53.659Z,21.83
2018-03-16T03:28:22.191Z,19.80
2018-03-16T03:30:49.777Z,20.67
2018-03-16T03:33:18.139Z,20.70
2018-03-16T03:35:46.613Z,20.17
2018-03-16T03:38:14.199Z,19.50
2018-03-16T03:40:41.781Z,20.87
2018-03-16T03:43:10.138Z,21.70
2018-03-16T03:45:37.797Z,20.13
2018-03-16T03:48:05.371Z,18.90
2018-03-16T03:50:32.983Z,19.80
2018-03-16T03:53:00.562Z,16.63
2018-03-16T03:55:28.186Z,19.07
2018-03-16T03:57:55.769Z,22.20
2018-03-16T04:00:23.387Z,19.27
2018-03-16T04:02:50.970Z,19.37
2018-03-16T04:05:18.588Z,18.77
2018-03-16T04:07:46.171Z,18.20
2018-03-16T04:10:14.533Z,20.27
2018-03-16T04:12:42.119Z,18.90
2018-03-16T04:15:09.695Z,20.20
2018-03-16T04:17:37.965Z,20.80
2018-03-16T04:20:06.360Z,19.10
2018-03-16T04:22:34.271Z,21.10
2018-03-16T04:25:02.628Z,20.30
2018-03-16T04:27:30.222Z,20.10
2018-03-16T04:29:57.837Z,20.47
2018-03-16T04:32:26.339Z,21.20
2018-03-16T04:34:53.921Z,20.93
2018-03-16T04:37:22.425Z,21.00
2018-03-16T04:39:50.069Z,20.70
2018-03-16T04:42:18.435Z,22.00
2018-03-16T04:44:46.024Z,22.70
2018-03-16T04:47:14.439Z,22.37
2018-03-16T04:49:42.819Z,22.30
2018-03-16T04:52:11.140Z,22.60
2018-03-16T04:54:38.723Z,20.60
2018-03-16T04:57:06.348Z,20.88
2018-03-16T04:59:34.638Z,23.00
2018-03-16T05:02:02.219Z,20.13
2018-03-16T05:04:30.618Z,21.80
2018-03-16T05:06:58.198Z,20.63
2018-03-16T05:09:26.579Z,20.62
2018-03-16T05:11:54.868Z,21.07
2018-03-16T05:14:22.455Z,22.70
2018-03-16T05:16:50.037Z,18.67
2018-03-16T05:19:17.623Z,19.97
2018-03-16T05:21:45.205Z,20.30
2018-03-16T05:24:13.683Z,17.37
2018-03-16T05:26:42.068Z,20.20
2018-03-16T05:29:09.650Z,20.13
2018-03-16T05:31:37.241Z,17.93
2018-03-16T05:34:04.861Z,22.30
2018-03-16T05:36:32.448Z,19.97
2018-03-16T05:39:00.731Z,16.97
2018-03-16T05:41:29.155Z,20.13
2018-03-16T05:43:56.741Z,18.37
2018-03-16T05:46:24.355Z,23.93
2018-03-16T05:48:51.940Z,19.40
2018-03-16T05:51:20.297Z,18.90
2018-03-16T05:53:47.879Z,18.63
2018-03-16T05:56:15.460Z,21.37
2018-03-16T05:58:43.044Z,20.23
2018-03-16T06:01:10.663Z,20.77
2018-03-16T06:03:38.938Z,19.10
2018-03-16T06:06:06.553Z,16.03
2018-03-16T06:08:34.171Z,18.02
2018-03-16T06:11:01.775Z,18.58
2018-03-16T06:13:30.136Z,20.07
2018-03-16T06:15:57.776Z,18.45
2018-03-16T06:18:25.366Z,18.45
2018-03-16T06:20:52.962Z,16.45
2018-03-16T06:23:21.327Z,18.43
2018-03-16T06:25:48.917Z,16.50
2018-03-16T06:28:16.510Z,18.00
2018-03-16T06:30:44.104Z,18.93
2018-03-16T06:33:11.686Z,18.77
2018-03-16T06:35:39.280Z,17.23
2018-03-16T06:38:07.751Z,13.50
2018-03-16T06:40:35.351Z,15.23
2018-03-16T06:43:02.971Z,15.97
2018-03-16T06:45:30.549Z,18.00
2018-03-16T06:47:58.847Z,14.55
2018-03-16T06:50:26.451Z,15.95
2018-03-16T06:52:54.031Z,16.83
2018-03-16T06:55:21.619Z,17.05
2018-03-16T06:57:49.218Z,16.30
2018-03-16T07:00:16.800Z,14.40
2018-03-16T07:02:44.380Z,14.17
2018-03-16T07:05:11.972Z,13.38
2018-03-16T07:07:39.559Z,14.40
2018-03-16T07:10:08.750Z,15.77
2018-03-16T07:12:36.363Z,13.10
2018-03-16T07:15:15.576Z,15.43
2018-03-16T07:17:44.165Z,15.93
2018-03-16T07:20:11.748Z,14.47
2018-03-16T07:22:39.331Z,14.93
2018-03-16T07:25:06.926Z,15.32
2018-03-16T07:27:34.515Z,12.80
2018-03-16T07:30:03.003Z,14.23
2018-03-16T07:32:30.894Z,14.05
2018-03-16T07:34:58.489Z,13.20
2018-03-16T07:37:26.104Z,11.93
2018-03-16T07:39:53.692Z,13.30
2018-03-16T07:42:21.280Z,14.17
2018-03-16T07:44:49.642Z,13.30
2018-03-16T07:47:17.259Z,12.07
2018-03-16T07:49:44.879Z,12.10
2018-03-16T07:52:13.380Z,11.73
2018-03-16T07:54:40.997Z,11.07
2018-03-16T07:57:08.576Z,9.73
2018-03-16T07:59:36.165Z,11.73
2018-03-16T08:02:04.600Z,10.32
2018-03-16T08:04:32.886Z,12.32
2018-03-16T08:07:01.294Z,11.60
2018-03-16T08:12:03.292Z,11.90
2018-03-16T08:14:31.792Z,11.50
2018-03-16T08:17:00.191Z,11.48
2018-03-16T08:19:28.578Z,12.60
2018-03-16T08:21:56.864Z,12.00
2018-03-16T08:24:25.247Z,11.87
2018-03-16T08:26:52.825Z,12.37
2018-03-16T08:29:20.447Z,10.20
2018-03-16T08:31:48.029Z,10.43
2018-03-16T08:34:15.615Z,12.07
2018-03-16T08:36:43.211Z,10.90
2018-03-16T08:39:10.806Z,10.35
2018-03-16T08:41:38.402Z,12.32
2018-03-16T08:44:05.979Z,9.70
2018-03-16T08:46:33.675Z,11.12
2018-03-16T08:49:02.034Z,11.18
2018-03-16T08:51:30.459Z,11.70
2018-03-16T08:53:58.935Z,10.45
2018-03-16T08:56:27.374Z,9.95
2018-03-16T08:58:55.745Z,10.77
2018-03-16T09:01:24.040Z,9.75
2018-03-16T09:03:51.671Z,10.20
2018-03-16T09:06:19.967Z,10.93
2018-03-16T09:08:48.367Z,9.80
2018-03-16T09:11:16.836Z,11.30
2018-03-16T09:13:44.475Z,9.85
2018-03-16T09:16:12.064Z,10.50
2018-03-16T09:18:39.696Z,8.43
2018-03-16T09:21:07.414Z,9.82
2018-03-16T09:23:35.191Z,10.97
2018-03-16T09:26:02.874Z,9.30
2018-03-16T09:28:31.284Z,9.57
2018-03-16T09:30:58.923Z,10.57
2018-03-16T09:33:26.515Z,10.15
2018-03-16T09:35:54.123Z,10.93
2018-03-16T09:38:21.707Z,9.33
2018-03-16T09:40:49.305Z,10.07
2018-03-16T09:43:16.891Z,10.37
2018-03-16T09:45:45.157Z,9.70
2018-03-16T09:48:13.531Z,10.18
2018-03-16T09:50:41.855Z,10.93
2018-03-16T09:53:09.419Z,9.32
2018-03-16T09:55:42.394Z,11.53
2018-03-16T09:58:10.882Z,9.70
2018-03-16T10:00:38.468Z,9.75
2018-03-16T10:03:06.884Z,9.20
2018-03-16T10:05:35.182Z,10.02
2018-03-16T10:08:02.763Z,12.20
2018-03-16T10:10:30.360Z,9.00
2018-03-16T10:12:57.941Z,10.40
2018-03-16T10:15:25.554Z,9.55
2018-03-16T10:17:53.200Z,9.27
2018-03-16T10:20:21.568Z,10.25
2018-03-16T10:22:49.166Z,10.38
2018-03-16T10:25:16.750Z,10.93
2018-03-16T10:27:45.224Z,9.80
2018-03-16T10:30:12.815Z,9.95
2018-03-16T10:32:41.669Z,9.00
2018-03-16T10:35:10.196Z,11.20
2018-03-16T10:37:37.779Z,9.70
2018-03-16T10:40:06.138Z,10.53
2018-03-16T10:42:33.723Z,10.75
2018-03-16T10:45:02.267Z,8.00
2018-03-16T10:47:29.854Z,10.02
2018-03-16T10:49:58.142Z,10.07
2018-03-16T10:52:26.506Z,9.80
2018-03-16T10:54:54.770Z,8.80
2018-03-16T10:57:23.147Z,9.55
2018-03-16T10:59:51.546Z,8.75
2018-03-16T11:02:20.042Z,9.80
2018-03-16T11:04:53.040Z,11.50
2018-03-16T11:07:21.538Z,9.13
2018-03-16T11:09:49.168Z,10.10
2018-03-16T11:12:17.676Z,10.20
2018-03-16T11:14:46.044Z,9.80
2018-03-16T11:17:14.475Z,8.35
2018-03-16T11:19:42.861Z,9.52
2018-03-16T11:22:11.191Z,9.80
2018-03-16T11:24:39.571Z,10.15
2018-03-16T11:27:07.248Z,8.80
2018-03-16T11:29:34.864Z,8.67
2018-03-16T11:32:02.439Z,9.33
2018-03-16T11:34:30.024Z,8.90
2018-03-16T11:36:58.444Z,7.07
2018-03-16T11:39:26.930Z,7.83
2018-03-16T11:41:54.514Z,9.02
2018-03-16T11:44:22.103Z,9.20
2018-03-16T11:46:49.692Z,10.33
2018-03-16T11:49:17.312Z,10.40
2018-03-16T11:51:44.936Z,10.80
2018-03-16T11:54:12.604Z,9.00
2018-03-16T11:56:40.184Z,10.53
2018-03-16T11:59:08.680Z,10.17
2018-03-16T12:01:37.037Z,10.23
2018-03-16T12:04:05.383Z,10.03
2018-03-16T12:06:33.726Z,9.20
2018-03-16T12:09:02.105Z,10.50
2018-03-16T12:11:30.549Z,8.85
2018-03-16T12:13:58.171Z,10.43
2018-03-16T12:16:26.088Z,11.33
2018-03-16T12:18:53.720Z,11.77
2018-03-16T12:21:22.239Z,11.00
2018-03-16T12:23:50.610Z,10.70
2018-03-16T12:26:19.011Z,10.73
2018-03-16T12:28:49.951Z,10.80
2018-03-16T12:31:15.852Z,10.77
2018-03-16T12:33:44.132Z,12.32
2018-03-16T12:36:12.498Z,11.97
2018-03-16T12:38:40.736Z,11.55
2018-03-16T12:41:08.320Z,11.53
2018-03-16T12:43:36.728Z,10.10
2018-03-16T12:46:04.324Z,12.90
2018-03-16T12:48:31.908Z,11.93
2018-03-16T12:50:59.496Z,11.12
2018-03-16T12:53:27.106Z,12.37
2018-03-16T12:55:54.736Z,13.03
2018-03-16T12:58:23.204Z,12.27
2018-03-16T13:00:50.830Z,13.40
2018-03-16T13:03:18.417Z,10.10
2018-03-16T13:05:46.719Z,12.05
2018-03-16T13:08:15.087Z,14.93
2018-03-16T13:10:43.456Z,14.10
2018-03-16T13:13:11.042Z,12.55
2018-03-16T13:15:38.632Z,13.00
2018-03-16T13:18:06.220Z,14.07
2018-03-16T13:20:33.816Z,12.55
2018-03-16T13:23:01.430Z,12.90
2018-03-16T13:25:29.043Z,13.18
2018-03-16T13:27:56.668Z,14.35
2018-03-16T13:30:24.260Z,11.30
2018-03-16T13:32:51.858Z,14.60
2018-03-16T13:35:19.451Z,12.82
2018-03-16T13:37:47.743Z,14.77
2018-03-16T13:40:16.248Z,13.90
2018-03-16T13:42:44.853Z,9.43
2018-03-16T13:45:12.451Z,13.15
2018-03-16T13:47:40.960Z,12.45
2018-03-16T13:50:08.542Z,12.93
2018-03-16T13:52:36.859Z,12.60
2018-03-16T13:55:04.447Z,12.20
2018-03-16T13:57:32.077Z,9.25
2018-03-16T13:59:59.664Z,13.73
2018-03-16T14:02:27.262Z,14.23
2018-03-16T14:04:55.632Z,14.20
2018-03-16T14:07:23.213Z,13.70
2018-03-16T14:09:51.696Z,11.15
2018-03-16T14:12:20.179Z,13.10
2018-03-16T14:14:47.774Z,14.63
2018-03-16T14:17:15.401Z,13.47
2018-03-16T14:19:43.680Z,15.67
2018-03-16T14:22:11.298Z,9.73
2018-03-16T14:24:39.657Z,14.93
2018-03-16T14:27:08.195Z,14.40
2018-03-16T14:29:35.783Z,13.40
2018-03-16T14:32:04.260Z,15.60
2018-03-16T14:34:31.875Z,14.33
2018-03-16T14:37:00.173Z,14.18
2018-03-16T14:39:27.764Z,13.75
2018-03-16T14:41:55.361Z,13.75
2018-03-16T14:44:23.731Z,14.83
2018-03-16T14:46:51.355Z,13.10
2018-03-16T14:49:18.943Z,12.35
2018-03-16T14:51:47.310Z,12.20
2018-03-16T14:54:14.976Z,11.60
2018-03-16T14:56:43.427Z,12.97
2018-03-16T14:59:11.040Z,11.77
2018-03-16T15:01:38.630Z,6.73
2018-03-16T15:04:07.168Z,13.17
2018-03-16T15:06:35.474Z,18.23
2018-03-16T15:09:03.809Z,14.32
2018-03-16T15:11:32.103Z,10.65
2018-03-16T15:14:00.515Z,11.73
2018-03-16T15:16:28.103Z,12.05
2018-03-16T15:18:56.328Z,11.15
2018-03-16T15:21:23.955Z,13.18
2018-03-16T15:23:51.584Z,11.88
2018-03-16T15:26:19.183Z,11.80
2018-03-16T15:28:47.588Z,9.82
2018-03-16T15:31:15.235Z,11.85
2018-03-16T15:33:43.716Z,9.55
2018-03-16T15:36:11.359Z,11.30
2018-03-16T15:38:39.753Z,10.80
2018-03-16T15:41:07.790Z,11.88
2018-03-16T15:43:36.270Z,11.02
2018-03-16T15:46:03.896Z,10.98
2018-03-16T15:48:31.532Z,10.57
2018-03-16T15:50:59.939Z,8.20
2018-03-16T15:53:27.572Z,10.20
2018-03-16T15:55:55.990Z,10.32
2018-03-16T15:58:23.595Z,10.52
2018-03-16T16:00:51.194Z,9.57
2018-03-16T16:03:18.791Z,8.82
2018-03-16T16:05:46.377Z,9.13
2018-03-16T16:08:13.991Z,8.00
2018-03-16T16:10:41.571Z,8.60
2018-03-16T16:13:09.151Z,9.40
2018-03-16T16:15:36.743Z,9.30
2018-03-16T16:18:04.335Z,9.45
2018-03-16T16:20:31.923Z,8.20
2018-03-16T16:22:59.526Z,9.07
2018-03-16T16:25:27.116Z,8.70
2018-03-16T16:27:54.760Z,10.63
2018-03-16T16:30:22.347Z,8.55
2018-03-16T16:32:49.938Z,10.85
2018-03-16T16:35:17.559Z,9.23
2018-03-16T16:37:45.855Z,9.07
2018-03-16T16:40:13.479Z,8.50
2018-03-16T16:42:41.833Z,9.25
2018-03-16T16:45:09.420Z,8.75
2018-03-16T16:47:37.853Z,8.75
2018-03-16T16:50:05.442Z,9.05
2018-03-16T16:52:33.072Z,8.75
2018-03-16T16:55:00.744Z,8.80
2018-03-16T16:57:28.332Z,8.95
2018-03-16T16:59:55.918Z,8.45
2018-03-16T17:02:23.525Z,10.80
2018-03-16T17:04:51.111Z,8.30
2018-03-16T17:07:18.700Z,8.93
2018-03-16T17:09:46.296Z,8.30
2018-03-16T17:12:13.890Z,7.60
2018-03-16T17:14:42.376Z,9.63
2018-03-16T17:17:10.015Z,9.02
2018-03-16T17:19:38.527Z,10.60
2018-03-16T17:22:06.123Z,10.68
2018-03-16T17:24:33.724Z,10.82
2018-03-16T17:27:01.318Z,9.77
2018-03-16T17:29:28.915Z,10.73
2018-03-16T17:31:56.512Z,9.88
2018-03-16T17:34:24.109Z,10.23
2018-03-16T17:36:51.703Z,11.05
2018-03-16T17:39:19.295Z,9.57
2018-03-16T17:41:46.979Z,10.75
2018-03-16T17:44:14.570Z,10.98
2018-03-16T17:46:42.218Z,10.52
2018-03-16T17:49:09.840Z,8.55
2018-03-16T17:51:37.426Z,9.52
2018-03-16T17:54:05.015Z,9.93
2018-03-16T17:56:32.643Z,7.90
2018-03-16T17:59:00.232Z,8.07
2018-03-16T18:01:28.551Z,7.07
2018-03-16T18:03:56.148Z,7.57
2018-03-16T18:06:23.735Z,8.00
2018-03-16T18:08:51.360Z,8.30
2018-03-16T18:11:18.943Z,7.50
2018-03-16T18:13:46.584Z,8.20
2018-03-16T18:16:14.167Z,6.05
2018-03-16T18:18:41.756Z,7.57
2018-03-16T18:21:09.343Z,7.15
2018-03-16T18:23:36.928Z,7.00
2018-03-16T18:26:04.548Z,7.50
2018-03-16T18:28:32.143Z,7.75
2018-03-16T18:30:59.732Z,6.90
2018-03-16T18:33:27.332Z,7.30
2018-03-16T18:35:54.915Z,6.78
2018-03-16T18:38:22.495Z,7.93
2018-03-16T18:40:51.024Z,7.18
2018-03-16T18:43:19.379Z,7.30
2018-03-16T18:45:47.854Z,7.62
2018-03-16T18:48:15.481Z,7.30
2018-03-16T18:50:43.104Z,6.07
2018-03-16T18:53:10.746Z,5.80
2018-03-16T18:55:39.241Z,6.47
2018-03-16T19:00:41.723Z,6.07
2018-03-16T19:03:09.311Z,5.82
2018-03-16T19:05:37.768Z,6.22
2018-03-16T19:08:06.224Z,5.95
2018-03-16T19:10:33.811Z,6.28
2018-03-16T19:13:01.426Z,5.78
2018-03-16T19:15:29.017Z,6.53
2018-03-16T19:17:56.599Z,5.72
2018-03-16T19:20:24.227Z,3.92
2018-03-16T19:22:51.815Z,5.60
2018-03-16T19:25:19.410Z,5.62
2018-03-16T19:27:47.003Z,4.60
2018-03-16T19:30:15.333Z,4.75
2018-03-16T19:32:42.963Z,5.55
2018-03-16T19:35:10.550Z,5.37
2018-03-16T19:37:38.202Z,4.72
2018-03-16T19:40:05.793Z,5.20
2018-03-16T19:42:33.376Z,4.62
2018-03-16T19:45:01.744Z,5.07
2018-03-16T19:47:30.152Z,4.75
2018-03-16T19:49:58.434Z,4.32
2018-03-16T19:52:27.721Z,4.85
2018-03-16T19:54:56.517Z,4.57
2018-03-16T19:57:24.707Z,4.30
2018-03-16T19:59:52.424Z,4.35
2018-03-16T20:02:20.996Z,4.47
2018-03-16T20:04:48.596Z,5.30
2018-03-16T20:07:17.092Z,4.82
2018-03-16T20:09:48.192Z,5.05
2018-03-16T20:12:15.784Z,4.47
2018-03-16T20:14:43.405Z,5.90
2018-03-16T20:17:11.107Z,3.70
2018-03-16T20:19:39.711Z,4.35
2018-03-16T20:22:07.301Z,4.60
2018-03-16T20:24:34.888Z,4.22
2018-03-16T20:27:02.499Z,4.25
2018-03-16T20:29:30.108Z,3.85
2018-03-16T20:31:57.700Z,4.00
2018-03-16T20:34:26.099Z,4.45
2018-03-16T20:36:54.637Z,4.10
2018-03-16T20:39:23.680Z,3.95
2018-03-16T20:41:51.260Z,3.03
2018-03-16T20:44:18.847Z,4.07
2018-03-16T20:46:46.448Z,3.72
2018-03-16T20:49:14.024Z,4.45
2018-03-16T20:51:42.398Z,4.50
2018-03-16T20:56:43.713Z,4.03
2018-03-16T20:59:11.332Z,3.90
2018-03-16T21:01:38.916Z,4.80
2018-03-16T21:04:06.504Z,3.58
2018-03-16T21:06:35.124Z,4.05
2018-03-16T21:09:02.707Z,3.97
2018-03-16T21:11:30.290Z,4.47
2018-03-16T21:13:57.875Z,3.80
2018-03-16T21:16:25.469Z,3.67
2018-03-16T21:18:53.056Z,4.00
2018-03-16T21:21:20.643Z,4.50
2018-03-16T21:23:48.223Z,4.00
2018-03-16T21:26:15.820Z,4.28
2018-03-16T21:28:43.443Z,4.72
2018-03-16T21:31:11.098Z,3.10
2018-03-16T21:33:38.651Z,4.65
2018-03-16T21:36:06.244Z,4.10
2018-03-16T21:38:33.832Z,4.05
2018-03-16T21:41:01.410Z,3.03
2018-03-16T21:43:28.996Z,3.62
2018-03-16T21:45:56.579Z,5.30
2018-03-16T21:48:24.155Z,4.72
2018-03-16T21:50:51.750Z,3.40
2018-03-16T21:53:19.468Z,4.10
2018-03-16T21:55:47.056Z,3.62
2018-03-16T21:58:14.637Z,3.22
2018-03-16T22:00:42.256Z,4.47
2018-03-16T22:03:09.842Z,4.32
2018-03-16T22:05:37.424Z,3.75
2018-03-16T22:08:05.828Z,4.15
2018-03-16T22:10:33.418Z,3.75
2018-03-16T22:13:01.009Z,4.32
2018-03-16T22:15:28.587Z,4.55
2018-03-16T22:17:57.078Z,4.45
2018-03-16T22:20:25.453Z,4.18
2018-03-16T22:22:53.821Z,3.20
2018-03-16T22:25:21.403Z,3.80
2018-03-16T22:27:48.985Z,3.53
2018-03-16T22:30:17.467Z,3.83
2018-03-16T22:32:45.054Z,3.67
2018-03-16T22:35:12.640Z,3.90
2018-03-16T22:37:40.220Z,3.45
2018-03-16T22:40:08.590Z,3.45
2018-03-16T22:42:36.172Z,3.75
2018-03-16T22:45:03.791Z,3.80
2018-03-16T22:47:31.371Z,4.07
2018-03-16T22:49:58.949Z,3.75
2018-03-16T22:52:27.538Z,2.70
2018-03-16T22:54:56.026Z,3.33
2018-03-16T22:57:23.629Z,4.30
2018-03-16T22:59:57.392Z,3.58
2018-03-16T23:02:25.025Z,2.87
2018-03-16T23:04:53.879Z,3.42
2018-03-16T23:07:21.515Z,3.60
2018-03-16T23:09:49.091Z,3.58
2018-03-16T23:12:16.939Z,4.25
2018-03-16T23:14:45.554Z,3.70
2018-03-16T23:17:13.135Z,3.00
2018-03-16T23:19:40.722Z,3.12
2018-03-16T23:22:08.346Z,3.70
2018-03-16T23:24:35.930Z,3.35
2018-03-16T23:27:03.517Z,3.08
2018-03-16T23:29:31.102Z,4.28
2018-03-16T23:31:58.711Z,3.47
2018-03-16T23:34:26.329Z,3.65
2018-03-16T23:36:53.932Z,3.83
2018-03-16T23:39:21.514Z,3.80
2018-03-16T23:41:49.099Z,3.50
2018-03-16T23:44:16.676Z,3.37
2018-03-16T23:46:45.050Z,4.00
2018-03-16T23:49:12.627Z,4.00
2018-03-16T23:51:40.213Z,3.67
2018-03-16T23:54:07.792Z,3.72
2018-03-16T23:56:35.396Z,2.50
2018-03-16T23:59:02.982Z,2.78
